createdAt,value
2022-12-01T00:01:34.500Z,98211.84
2022-12-01T00:04:02.738Z,98213.75
2022-12-01T00:06:29.238Z,98209.16
2022-12-01T00:09:19.689Z,98211.84
2022-12-01T00:11:46.826Z,98215.00
2022-12-01T00:14:13.387Z,98207.75
2022-12-01T00:16:41.386Z,98213.09
2022-12-01T00:19:12.302Z,98205.06
2022-12-01T00:21:38.768Z,98201.28
2022-12-01T00:24:13.590Z,98205.56
2022-12-01T00:26:40.295Z,98200.97
2022-12-01T00:29:07.028Z,98207.09
2022-12-01T00:31:40.382Z,98210.91
2022-12-01T00:34:11.049Z,98201.75
2022-12-01T00:36:41.525Z,98206.31
2022-12-01T00:39:08.585Z,98208.69
2022-12-01T00:41:35.096Z,98207.09
2022-12-01T00:44:01.577Z,98201.75
2022-12-01T00:46:38.696Z,98201.75
2022-12-01T00:49:06.224Z,98204.41
2022-12-01T00:51:33.108Z,98206.31
2022-12-01T00:53:59.748Z,98201.75
2022-12-01T00:56:26.281Z,98209.00
2022-12-01T00:58:52.975Z,98206.31
2022-12-01T01:01:21.518Z,98207.91
2022-12-01T01:03:48.089Z,98199.06
2022-12-01T01:06:14.791Z,98197.19
2022-12-01T01:08:41.500Z,98199.56
2022-12-01T01:11:09.154Z,98200.66
2022-12-01T01:13:36.440Z,98192.63
2022-12-01T01:16:15.664Z,98200.66
2022-12-01T01:18:48.028Z,98192.94
2022-12-01T01:21:16.677Z,98194.84
2022-12-01T01:23:43.325Z,98194.84
2022-12-01T01:26:16.288Z,98200.19
2022-12-01T01:28:49.320Z,98208.53
2022-12-01T01:31:19.529Z,98205.06
2022-12-01T01:33:48.434Z,98201.63
2022-12-01T01:36:16.205Z,98204.28
2022-12-01T01:38:42.837Z,98207.75
2022-12-01T01:41:10.340Z,98206.16
2022-12-01T01:43:55.576Z,98203.81
2022-12-01T01:46:34.077Z,98203.50
2022-12-01T01:49:05.388Z,98203.03
2022-12-01T01:51:52.115Z,98207.59
2022-12-01T01:54:22.673Z,98206.03
2022-12-01T01:56:51.146Z,98193.75
2022-12-01T01:59:27.606Z,98204.78
2022-12-01T02:02:01.872Z,98207.44
2022-12-01T02:04:35.112Z,98206.34
2022-12-01T02:07:01.653Z,98210.56
2022-12-01T02:09:28.147Z,98202.56
2022-12-01T02:12:12.701Z,98202.25
2022-12-01T02:14:57.148Z,98199.59
2022-12-01T02:17:34.340Z,98195.78
2022-12-01T02:20:30.317Z,98197.69
2022-12-01T02:23:09.240Z,98195.00
2022-12-01T02:25:59.754Z,98201.44
2022-12-01T02:28:35.068Z,98186.50
2022-12-01T02:31:22.586Z,98191.84
2022-12-01T02:34:15.013Z,98188.41
2022-12-01T02:37:06.431Z,98191.06
2022-12-01T02:39:42.570Z,98176.13
2022-12-01T02:42:37.723Z,98186.03
2022-12-01T02:45:10.625Z,98181.78
2022-12-01T02:47:40.635Z,98184.47
2022-12-01T02:50:10.312Z,98191.38
2022-12-01T02:52:40.418Z,98189.81
2022-12-01T02:55:07.186Z,98190.94
2022-12-01T02:57:33.939Z,98188.72
2022-12-01T03:00:03.495Z,98190.13
2022-12-01T03:02:50.584Z,98195.81
2022-12-01T03:05:29.258Z,98194.72
2022-12-01T03:08:20.934Z,98197.38
2022-12-01T03:10:55.321Z,98194.72
2022-12-01T03:13:27.540Z,98197.38
2022-12-01T03:16:16.756Z,98197.38
2022-12-01T03:18:47.414Z,98191.56
2022-12-01T03:21:35.985Z,98193.44
2022-12-01T03:24:11.626Z,98193.44
2022-12-01T03:26:41.592Z,98184.66
2022-12-01T03:29:18.224Z,98191.09
2022-12-01T03:31:58.674Z,98188.41
2022-12-01T03:34:49.965Z,98189.50
2022-12-01T03:37:26.530Z,98193.28
2022-12-01T03:40:00.284Z,98187.66
2022-12-01T03:42:34.053Z,98192.50
2022-12-01T03:45:08.008Z,98188.25
2022-12-01T03:47:39.358Z,98194.72
2022-12-01T03:50:08.062Z,98184.81
2022-12-01T03:52:54.907Z,98184.34
2022-12-01T03:55:33.194Z,98185.91
2022-12-01T03:58:11.386Z,98191.56
2022-12-01T04:00:38.330Z,98193.78
2022-12-01T04:03:05.360Z,98190.81
2022-12-01T04:05:37.309Z,98190.31
2022-12-01T04:08:04.065Z,98194.88
2022-12-01T04:10:30.648Z,98195.22
2022-12-01T04:13:01.344Z,98195.66
2022-12-01T04:15:28.285Z,98203.25
2022-12-01T04:17:55.234Z,98198.97
2022-12-01T04:20:23.345Z,98194.44
2022-12-01T04:22:49.972Z,98200.56
2022-12-01T04:25:16.647Z,98195.53
2022-12-01T04:27:45.049Z,98196.63
2022-12-01T04:30:12.521Z,98203.88
2022-12-01T04:32:42.122Z,98194.28
2022-12-01T04:35:11.108Z,98196.47
2022-12-01T04:37:40.309Z,98201.81
2022-12-01T04:40:07.693Z,98198.03
2022-12-01T04:42:36.370Z,98200.72
2022-12-01T04:45:03.319Z,98198.38
2022-12-01T04:47:29.940Z,98197.59
2022-12-01T04:50:03.153Z,98201.34
2022-12-01T04:52:34.986Z,98203.25
2022-12-01T04:55:03.390Z,98197.91
2022-12-01T04:57:30.045Z,98213.16
2022-12-01T04:59:56.488Z,98205.59
2022-12-01T05:02:23.012Z,98202.13
2022-12-01T05:04:49.693Z,98203.25
2022-12-01T05:07:17.931Z,98206.69
2022-12-01T05:09:44.440Z,98203.41
2022-12-01T05:12:12.630Z,98210.16
2022-12-01T05:14:39.191Z,98206.38
2022-12-01T05:17:05.649Z,98208.28
2022-12-01T05:19:52.928Z,98212.50
2022-12-01T05:22:36.424Z,98212.50
2022-12-01T05:25:11.249Z,98203.72
2022-12-01T05:27:37.783Z,98202.44
2022-12-01T05:30:05.035Z,98211.59
2022-12-01T05:32:33.238Z,98218.34
2022-12-01T05:34:59.717Z,98219.13
2022-12-01T05:37:33.212Z,98220.22
2022-12-01T05:39:59.799Z,98217.56
2022-12-01T05:42:26.462Z,98217.88
2022-12-01T05:44:53.109Z,98223.53
2022-12-01T05:47:19.727Z,98212.38
2022-12-01T05:49:46.303Z,98213.47
2022-12-01T05:52:13.162Z,98219.16
2022-12-01T05:54:39.883Z,98218.66
2022-12-01T05:57:06.409Z,98220.56
2022-12-01T05:59:32.876Z,98217.09
2022-12-01T06:02:01.163Z,98220.09
2022-12-01T06:04:27.728Z,98218.53
2022-12-01T06:06:54.354Z,98218.53
2022-12-01T06:09:20.922Z,98227.63
2022-12-01T06:11:52.225Z,98214.25
2022-12-01T06:14:19.026Z,98219.16
2022-12-01T06:16:53.986Z,98225.28
2022-12-01T06:19:24.825Z,98229.03
2022-12-01T06:21:53.430Z,98233.63
2022-12-01T06:24:21.605Z,98228.28
2022-12-01T06:26:49.930Z,98225.59
2022-12-01T06:29:16.477Z,98227.50
2022-12-01T06:31:44.996Z,98227.81
2022-12-01T06:34:11.809Z,98235.84
2022-12-01T06:36:38.376Z,98243.38
2022-12-01T06:39:13.537Z,98235.34
2022-12-01T06:41:40.016Z,98246.53
2022-12-01T06:44:06.736Z,98237.25
2022-12-01T06:46:33.406Z,98242.59
2022-12-01T06:49:00.069Z,98244.00
2022-12-01T06:51:27.094Z,98243.22
2022-12-01T06:54:00.801Z,98241.31
2022-12-01T06:56:30.932Z,98244.78
2022-12-01T06:58:57.838Z,98242.41
2022-12-01T07:01:24.967Z,98246.66
2022-12-01T07:03:51.888Z,98248.56
2022-12-01T07:06:18.636Z,98247.75
2022-12-01T07:08:47.429Z,98247.00
2022-12-01T07:11:15.716Z,98250.44
2022-12-01T07:13:45.507Z,98249.34
2022-12-01T07:16:14.373Z,98261.63
2022-12-01T07:18:40.970Z,98260.81
2022-12-01T07:21:11.403Z,98259.41
2022-12-01T07:23:39.652Z,98257.22
2022-12-01T07:26:15.817Z,98259.09
2022-12-01T07:28:45.391Z,98259.56
2022-12-01T07:31:13.510Z,98265.06
2022-12-01T07:33:40.439Z,98260.53
2022-12-01T07:36:08.293Z,98266.34
2022-12-01T07:38:35.820Z,98266.00
2022-12-01T07:41:08.654Z,98274.81
2022-12-01T07:43:38.262Z,98272.94
2022-12-01T07:46:21.822Z,98287.41
2022-12-01T07:48:51.262Z,98288.19
2022-12-01T07:51:24.267Z,98280.47
2022-12-01T07:53:51.862Z,98279.69
2022-12-01T07:56:19.646Z,98285.81
2022-12-01T07:58:46.583Z,98290.09
2022-12-01T08:01:16.797Z,98290.56
2022-12-01T08:03:51.817Z,98289.75
2022-12-01T08:06:19.230Z,98292.44
2022-12-01T08:08:45.750Z,98292.44
2022-12-01T08:11:24.424Z,98299.84
2022-12-01T08:13:52.045Z,98300.63
2022-12-01T08:16:22.443Z,98303.00
2022-12-01T08:18:49.447Z,98303.78
2022-12-01T08:21:18.687Z,98300.00
2022-12-01T08:23:46.381Z,98300.47
2022-12-01T08:26:15.657Z,98295.13
2022-12-01T08:28:44.542Z,98303.63
2022-12-01T08:31:27.486Z,98294.97
2022-12-01T08:33:54.962Z,98290.56
2022-12-01T08:36:22.560Z,98298.28
2022-12-01T08:38:53.492Z,98295.28
2022-12-01T08:41:20.520Z,98287.09
2022-12-01T08:43:58.051Z,98304.09
2022-12-01T08:46:38.219Z,98296.84
2022-12-01T08:49:06.248Z,98300.78
2022-12-01T08:51:34.865Z,98300.78
2022-12-01T08:54:01.534Z,98299.69
2022-12-01T08:56:34.026Z,98301.75
2022-12-01T08:59:00.952Z,98299.06
2022-12-01T09:01:32.335Z,98302.50
2022-12-01T09:04:08.769Z,98295.28
2022-12-01T09:06:40.680Z,98301.09
2022-12-01T09:09:10.843Z,98300.78
2022-12-01T09:11:37.887Z,98308.81
2022-12-01T09:14:06.376Z,98310.06
2022-12-01T09:16:34.731Z,98297.16
2022-12-01T09:19:01.768Z,98306.75
2022-12-01T09:21:30.957Z,98315.56
2022-12-01T09:23:57.492Z,98317.31
2022-12-01T09:26:24.831Z,98314.16
2022-12-01T09:28:57.316Z,98314.16
2022-12-01T09:31:24.558Z,98313.06
2022-12-01T09:33:56.347Z,98314.31
2022-12-01T09:36:23.069Z,98320.44
2022-12-01T09:38:49.526Z,98315.09
2022-12-01T09:41:28.547Z,98312.91
2022-12-01T09:44:05.746Z,98315.09
2022-12-01T09:46:41.504Z,98317.31
2022-12-01T09:49:15.425Z,98317.94
2022-12-01T09:51:41.937Z,98311.16
2022-12-01T09:54:17.631Z,98313.06
2022-12-01T09:56:49.564Z,98312.28
2022-12-01T09:59:25.437Z,98311.97
2022-12-01T10:02:00.187Z,98312.09
2022-12-01T10:04:44.596Z,98308.00
2022-12-01T10:07:23.727Z,98308.94
2022-12-01T10:10:01.503Z,98301.06
2022-12-01T10:12:33.763Z,98304.22
2022-12-01T10:15:12.713Z,98298.53
2022-12-01T10:18:05.467Z,98296.47
2022-12-01T10:20:42.474Z,98295.34
2022-12-01T10:23:33.799Z,98287.78
2022-12-01T10:26:14.727Z,98292.84
2022-12-01T10:29:05.141Z,98286.97
2022-12-01T10:31:45.344Z,98283.19
2022-12-01T10:34:17.887Z,98283.19
2022-12-01T10:36:44.580Z,98284.78
2022-12-01T10:39:20.061Z,98275.91
2022-12-01T10:41:49.027Z,98275.06
2022-12-01T10:44:18.411Z,98272.06
2022-12-01T10:46:54.289Z,98272.06
2022-12-01T10:49:23.098Z,98274.75
2022-12-01T10:51:58.332Z,98268.72
2022-12-01T10:54:36.602Z,98259.38
2022-12-01T10:57:08.349Z,98271.84
2022-12-01T10:59:36.971Z,98262.13
2022-12-01T11:02:06.566Z,98262.34
2022-12-01T11:04:47.090Z,98262.22
2022-12-01T11:07:21.556Z,98263.59
2022-12-01T11:09:57.173Z,98266.53
2022-12-01T11:12:23.793Z,98268.75
2022-12-01T11:14:53.458Z,98262.16
2022-12-01T11:17:35.261Z,98267.84
2022-12-01T11:20:38.442Z,98261.56
2022-12-01T11:23:28.130Z,98261.03
2022-12-01T11:26:20.947Z,98266.78
2022-12-01T11:29:22.678Z,98255.84
2022-12-01T11:31:51.359Z,98261.31
2022-12-01T11:34:31.481Z,98252.00
2022-12-01T11:37:01.635Z,98254.84
2022-12-01T11:39:33.164Z,98253.50
2022-12-01T11:42:03.310Z,98250.31
2022-12-01T11:47:26.639Z,98252.00
2022-12-01T11:50:02.160Z,98251.47
2022-12-01T11:52:32.165Z,98243.19
2022-12-01T11:55:12.995Z,98247.03
2022-12-01T11:57:46.397Z,98246.72
2022-12-01T12:00:17.717Z,98245.72
2022-12-01T12:03:14.895Z,98252.97
2022-12-01T12:06:32.378Z,98240.63
2022-12-01T12:09:28.530Z,98241.59
2022-12-01T12:12:16.631Z,98242.53
2022-12-01T12:15:03.453Z,98241.69
2022-12-01T12:17:53.793Z,98241.09
2022-12-01T12:20:23.472Z,98242.44
2022-12-01T12:22:55.618Z,98238.13
2022-12-01T12:25:32.141Z,98239.69
2022-12-01T12:28:28.345Z,98245.25
2022-12-01T12:31:33.313Z,98235.19
2022-12-01T12:34:23.864Z,98237.31
2022-12-01T12:37:08.592Z,98228.22
2022-12-01T12:39:41.953Z,98228.66
2022-12-01T12:42:19.037Z,98227.44
2022-12-01T12:44:48.445Z,98233.28
2022-12-01T12:47:31.034Z,98228.91
2022-12-01T12:50:11.974Z,98223.88
2022-12-01T12:52:47.549Z,98226.25
2022-12-01T12:55:32.066Z,98226.25
2022-12-01T12:58:11.604Z,98216.34
2022-12-01T13:00:42.771Z,98220.91
2022-12-01T13:03:26.842Z,98209.28
2022-12-01T13:06:09.161Z,98222.97
2022-12-01T13:08:50.362Z,98205.47
2022-12-01T13:11:44.782Z,98212.25
2022-12-01T13:14:26.445Z,98217.94
2022-12-01T13:16:56.596Z,98225.84
2022-12-01T13:19:30.443Z,98214.97
2022-12-01T13:21:58.433Z,98212.94
2022-12-01T13:24:28.845Z,98215.63
2022-12-01T13:27:13.559Z,98218.47
2022-12-01T13:29:46.655Z,98212.66
2022-12-01T13:32:35.317Z,98211.88
2022-12-01T13:35:06.492Z,98203.84
2022-12-01T13:37:38.249Z,98202.94
2022-12-01T13:40:23.845Z,98208.28
2022-12-01T13:43:08.903Z,98214.72
2022-12-01T13:45:38.574Z,98212.38
2022-12-01T13:48:06.853Z,98206.88
2022-12-01T13:50:45.796Z,98201.50
2022-12-01T13:53:27.368Z,98211.78
2022-12-01T13:56:03.896Z,98214.44
2022-12-01T13:58:35.537Z,98213.97
2022-12-01T14:01:20.754Z,98206.91
2022-12-01T14:04:11.031Z,98206.78
2022-12-01T14:06:49.545Z,98207.22
2022-12-01T14:09:32.468Z,98201.41
2022-12-01T14:12:03.393Z,98207.88
2022-12-01T14:14:40.817Z,98209.63
2022-12-01T14:17:24.457Z,98213.72
2022-12-01T14:19:52.853Z,98212.94
2022-12-01T14:22:33.658Z,98214.03
2022-12-01T14:25:03.411Z,98211.69
2022-12-01T14:27:41.978Z,98210.91
2022-12-01T14:30:39.310Z,98208.22
2022-12-01T14:33:41.857Z,98209.78
2022-12-01T14:36:25.349Z,98210.75
2022-12-01T14:39:00.367Z,98208.38
2022-12-01T14:41:38.769Z,98209.16
2022-12-01T14:44:31.588Z,98219.88
2022-12-01T14:47:12.404Z,98220.50
2022-12-01T14:50:01.725Z,98217.69
2022-12-01T14:52:38.479Z,98217.22
2022-12-01T14:55:14.003Z,98216.44
2022-12-01T14:57:46.221Z,98218.31
2022-12-01T15:00:24.214Z,98215.63
2022-12-01T15:03:03.366Z,98216.28
2022-12-01T15:05:39.089Z,98218.94
2022-12-01T15:09:10.632Z,98217.69
2022-12-01T15:11:25.628Z,98214.25
2022-12-01T15:13:56.188Z,98216.91
2022-12-01T15:16:29.422Z,98218.00
2022-12-01T15:18:56.449Z,98214.88
2022-12-01T15:21:26.540Z,98214.88
2022-12-01T15:24:02.952Z,98221.31
2022-12-01T15:26:34.280Z,98226.66
2022-12-01T15:29:12.801Z,98224.31
2022-12-01T15:31:41.813Z,98219.28
2022-12-01T15:34:14.074Z,98218.03
2022-12-01T15:36:47.337Z,98215.50
2022-12-01T15:39:16.981Z,98218.50
2022-12-01T15:41:45.486Z,98211.59
2022-12-01T15:44:35.349Z,98221.81
2022-12-01T15:47:30.861Z,98218.69
2022-12-01T15:49:59.515Z,98226.69
2022-12-01T15:52:26.264Z,98224.03
2022-12-01T15:54:53.033Z,98224.34
2022-12-01T15:57:21.985Z,98222.75
2022-12-01T15:59:54.449Z,98218.84
2022-12-01T16:02:31.905Z,98218.84
2022-12-01T16:05:17.026Z,98217.25
2022-12-01T16:08:11.937Z,98226.41
2022-12-01T16:10:34.733Z,98224.81
2022-12-01T16:13:43.469Z,98217.09
2022-12-01T16:16:31.973Z,98218.19
2022-12-01T16:19:05.133Z,98218.97
2022-12-01T16:21:35.026Z,98221.97
2022-12-01T16:24:04.984Z,98223.88
2022-12-01T16:26:35.511Z,98228.44
2022-12-01T16:29:02.230Z,98229.38
2022-12-01T16:31:28.875Z,98222.47
2022-12-01T16:34:30.576Z,98217.41
2022-12-01T16:36:54.537Z,98223.06
2022-12-01T16:39:25.606Z,98221.97
2022-12-01T16:41:54.171Z,98222.63
2022-12-01T16:44:30.084Z,98226.69
2022-12-01T16:46:58.467Z,98224.78
2022-12-01T16:49:25.311Z,98217.91
2022-12-01T16:51:56.790Z,98225.91
2022-12-01T16:54:24.433Z,98222.44
2022-12-01T16:56:51.349Z,98223.56
2022-12-01T16:59:17.822Z,98226.56
2022-12-01T17:01:52.007Z,98220.88
2022-12-01T17:04:18.624Z,98231.41
2022-12-01T17:06:45.141Z,98227.16
2022-12-01T17:09:11.779Z,98230.94
2022-12-01T17:11:38.342Z,98231.25
2022-12-01T17:14:09.237Z,98227.78
2022-12-01T17:16:37.563Z,98228.09
2022-12-01T17:19:04.548Z,98235.34
2022-12-01T17:21:31.101Z,98228.41
2022-12-01T17:23:59.395Z,98233.00
2022-12-01T17:26:26.149Z,98227.66
2022-12-01T17:28:55.375Z,98227.97
2022-12-01T17:31:24.600Z,98226.38
2022-12-01T17:33:51.625Z,98229.06
2022-12-01T17:36:21.336Z,98229.38
2022-12-01T17:38:48.162Z,98229.69
2022-12-01T17:41:24.874Z,98235.81
2022-12-01T17:43:51.530Z,98240.38
2022-12-01T17:46:20.019Z,98241.47
2022-12-01T17:48:47.149Z,98227.31
2022-12-01T17:51:14.834Z,98233.44
2022-12-01T17:53:41.465Z,98231.53
2022-12-01T17:56:10.321Z,98238.78
2022-12-01T17:58:42.050Z,98236.13
2022-12-01T18:01:17.056Z,98238.31
2022-12-01T18:03:43.768Z,98238.31
2022-12-01T18:06:10.529Z,98241.28
2022-12-01T18:08:37.560Z,98238.94
2022-12-01T18:11:09.551Z,98243.19
2022-12-01T18:13:47.524Z,98241.59
2022-12-01T18:16:19.330Z,98245.06
2022-12-01T18:21:37.121Z,98242.22
2022-12-01T18:24:04.980Z,98244.91
2022-12-01T18:26:33.391Z,98242.53
2022-12-01T18:29:04.446Z,98240.19
2022-12-01T18:31:33.038Z,98247.13
2022-12-01T18:34:04.481Z,98237.81
2022-12-01T18:36:38.768Z,98244.25
2022-12-01T18:39:08.040Z,98240.00
2022-12-01T18:41:35.672Z,98236.88
2022-12-01T18:44:02.599Z,98236.09
2022-12-01T18:46:29.392Z,98241.44
2022-12-01T18:49:04.808Z,98240.31
2022-12-01T18:51:33.987Z,98232.63
2022-12-01T18:54:02.421Z,98237.97
2022-12-01T18:56:31.665Z,98234.53
2022-12-01T18:59:00.537Z,98238.28
2022-12-01T19:01:32.925Z,98240.19
2022-12-01T19:04:02.126Z,98235.16
2022-12-01T19:06:29.349Z,98235.16
2022-12-01T19:08:59.513Z,98236.69
2022-12-01T19:11:26.065Z,98236.22
2022-12-01T19:13:52.529Z,98235.16
2022-12-01T19:16:27.668Z,98233.06
2022-12-01T19:18:54.236Z,98230.41
2022-12-01T19:21:20.832Z,98230.41
2022-12-01T19:23:48.003Z,98228.84
2022-12-01T19:26:19.895Z,98233.06
2022-12-01T19:28:55.265Z,98231.84
2022-12-01T19:31:23.965Z,98233.38
2022-12-01T19:33:57.014Z,98231.53
2022-12-01T19:36:27.630Z,98232.91
2022-12-01T19:38:57.599Z,98233.22
2022-12-01T19:41:25.420Z,98237.78
2022-12-01T19:43:55.146Z,98241.56
2022-12-01T19:46:23.854Z,98235.41
2022-12-01T19:49:02.505Z,98241.56
2022-12-01T19:51:32.016Z,98239.97
2022-12-01T19:53:58.578Z,98240.75
2022-12-01T19:56:30.300Z,98245.31
2022-12-01T19:58:57.827Z,98241.38
2022-12-01T20:01:24.569Z,98242.47
2022-12-01T20:03:56.092Z,98237.13
2022-12-01T20:06:26.354Z,98247.81
2022-12-01T20:08:57.540Z,98243.59
2022-12-01T20:11:24.561Z,98246.56
2022-12-01T20:13:52.098Z,98242.00
2022-12-01T20:16:23.455Z,98244.69
2022-12-01T20:18:51.175Z,98250.34
2022-12-01T20:21:21.076Z,98250.66
2022-12-01T20:23:57.458Z,98252.50
2022-12-01T20:26:30.266Z,98245.31
2022-12-01T20:29:07.411Z,98248.28
2022-12-01T20:31:34.689Z,98250.97
2022-12-01T20:34:16.025Z,98255.50
2022-12-01T20:36:45.967Z,98250.47
2022-12-01T20:39:13.796Z,98252.34
2022-12-01T20:41:41.120Z,98246.69
2022-12-01T20:44:08.180Z,98243.53
2022-12-01T20:46:36.434Z,98244.34
2022-12-01T20:49:08.477Z,98250.00
2022-12-01T20:51:35.106Z,98242.28
2022-12-01T20:56:50.545Z,98245.75
2022-12-01T20:59:17.034Z,98246.06
2022-12-01T21:01:45.586Z,98246.06
2022-12-01T21:04:18.512Z,98249.81
2022-12-01T21:06:50.074Z,98257.81
2022-12-01T21:09:16.768Z,98254.38
2022-12-01T21:12:10.558Z,98254.38
2022-12-01T21:14:57.209Z,98252.03
2022-12-01T21:17:30.936Z,98249.66
2022-12-01T21:20:11.678Z,98245.09
2022-12-01T21:22:44.475Z,98237.88
2022-12-01T21:25:18.778Z,98234.41
2022-12-01T21:27:46.984Z,98232.84
2022-12-01T21:30:28.678Z,98227.50
2022-12-01T21:33:10.690Z,98231.28
2022-12-01T21:35:37.653Z,98221.38
2022-12-01T21:38:10.850Z,98226.22
2022-12-01T21:40:39.163Z,98224.34
2022-12-01T21:43:24.376Z,98222.78
2022-12-01T21:45:59.744Z,98222.00
2022-12-01T21:48:35.112Z,98219.66
2022-12-01T21:51:07.245Z,98220.72
2022-12-01T21:53:38.421Z,98220.72
2022-12-01T21:56:05.090Z,98217.28
2022-12-01T21:58:37.095Z,98215.69
2022-12-01T22:01:24.515Z,98218.38
2022-12-01T22:03:51.200Z,98216.47
2022-12-01T22:06:31.674Z,98222.63
2022-12-01T22:09:02.408Z,98218.38
2022-12-01T22:11:30.558Z,98216.47
2022-12-01T22:14:09.079Z,98213.34
2022-12-01T22:16:38.147Z,98217.56
2022-12-01T22:19:17.114Z,98213.81
2022-12-01T22:21:48.184Z,98218.38
2022-12-01T22:24:22.070Z,98215.69
2022-12-01T22:26:53.622Z,98215.69
2022-12-01T22:29:31.800Z,98217.56
2022-12-01T22:32:12.435Z,98214.91
2022-12-01T22:34:45.523Z,98214.13
2022-12-01T22:37:19.641Z,98221.03
2022-12-01T22:39:57.401Z,98220.25
2022-12-01T22:42:34.881Z,98222.63
2022-12-01T22:45:19.232Z,98223.41
2022-12-01T22:47:48.032Z,98220.72
2022-12-01T22:50:30.304Z,98219.66
2022-12-01T22:53:10.116Z,98211.63
2022-12-01T22:55:38.485Z,98214.63
2022-12-01T22:58:35.402Z,98221.19
2022-12-01T23:01:11.262Z,98217.44
2022-12-01T23:03:37.760Z,98214.31
2022-12-01T23:06:42.703Z,98214.31
2022-12-01T23:09:13.676Z,98217.44
2022-12-01T23:11:43.032Z,98217.44
2022-12-01T23:14:16.804Z,98219.03
2022-12-01T23:16:43.281Z,98216.34
2022-12-01T23:19:10.007Z,98215.25
2022-12-01T23:21:38.571Z,98214.16
2022-12-01T23:24:06.290Z,98211.78
2022-12-01T23:26:33.064Z,98206.44
2022-12-01T23:29:06.062Z,98205.34
2022-12-01T23:31:33.539Z,98201.41
2022-12-01T23:34:00.051Z,98201.41
2022-12-01T23:36:28.520Z,98200.94
2022-12-01T23:39:01.298Z,98200.94
2022-12-01T23:41:37.357Z,98197.78
2022-12-01T23:44:13.708Z,98195.13
2022-12-01T23:46:40.403Z,98192.44
2022-12-01T23:49:14.125Z,98187.13
2022-12-01T23:51:48.621Z,98189.00
2022-12-01T23:54:26.755Z,98195.13
2022-12-01T23:56:57.402Z,98190.59
2022-12-01T23:59:27.473Z,98180.69
